createdAt,value
2019-06-07T00:03:26.643Z,81.40
2019-06-07T00:08:28.665Z,81.99
2019-06-07T00:13:30.455Z,82.46
2019-06-07T00:18:36.831Z,81.55
2019-06-07T00:23:42.076Z,80.43
2019-06-07T00:28:47.580Z,81.14
2019-06-07T00:33:52.830Z,80.24
2019-06-07T00:38:58.372Z,79.88
2019-06-07T00:44:03.880Z,80.30
2019-06-07T00:49:09.311Z,80.62
2019-06-07T00:54:17.078Z,79.78
2019-06-07T00:59:28.426Z,80.35
2019-06-07T01:04:28.458Z,79.42
2019-06-07T01:09:33.698Z,79.63
2019-06-07T01:14:38.986Z,80.21
2019-06-07T01:19:44.476Z,80.40
2019-06-07T01:24:50.127Z,80.25
2019-06-07T01:29:55.334Z,79.50
2019-06-07T01:35:00.976Z,79.24
2019-06-07T01:40:06.752Z,78.24
2019-06-07T01:45:12.906Z,78.00
2019-06-07T01:50:22.516Z,78.64
2019-06-07T01:55:29.169Z,78.00
2019-06-07T02:00:32.992Z,78.49
2019-06-07T02:05:38.711Z,78.73
2019-06-07T02:10:46.729Z,78.85
2019-06-07T02:15:52.388Z,78.19
2019-06-07T02:20:58.047Z,79.03
2019-06-07T02:26:04.542Z,79.90
2019-06-07T02:31:09.848Z,78.98
2019-06-07T02:36:15.185Z,79.96
2019-06-07T02:41:22.929Z,80.46
2019-06-07T02:46:36.376Z,80.51
2019-06-07T02:51:41.112Z,80.60
2019-06-07T02:56:56.798Z,80.43
2019-06-07T03:01:48.759Z,81.27
2019-06-07T03:06:56.304Z,80.56
2019-06-07T03:12:03.200Z,80.22
2019-06-07T03:17:20.967Z,80.74
2019-06-07T03:22:26.748Z,80.03
2019-06-07T03:27:41.349Z,80.93
2019-06-07T03:32:47.206Z,81.20
2019-06-07T03:37:49.005Z,81.33
2019-06-07T03:42:54.612Z,82.24
2019-06-07T03:48:00.267Z,82.61
2019-06-07T03:53:05.719Z,82.69
2019-06-07T03:58:31.240Z,83.37
2019-06-07T04:03:33.640Z,82.61
2019-06-07T04:08:26.001Z,83.39
2019-06-07T04:13:36.746Z,82.91
2019-06-07T04:18:40.834Z,82.72
2019-06-07T04:23:45.924Z,82.32
2019-06-07T04:33:58.281Z,82.53
2019-06-07T04:39:03.890Z,82.44
2019-06-07T04:44:10.132Z,82.88
2019-06-07T04:49:17.468Z,82.99
2019-06-07T04:54:22.713Z,82.95
2019-06-07T05:00:04.277Z,82.87
2019-06-07T05:04:36.541Z,82.54
2019-06-07T05:09:43.339Z,81.65
2019-06-07T05:14:49.041Z,81.55
2019-06-07T05:19:54.284Z,81.38
2019-06-07T05:24:59.540Z,80.96
2019-06-07T05:30:13.702Z,80.56
2019-06-07T05:35:12.886Z,79.47
2019-06-07T05:40:22.821Z,79.63
2019-06-07T05:45:35.791Z,80.10
2019-06-07T05:50:49.981Z,79.51
2019-06-07T05:55:48.660Z,79.79
2019-06-07T06:00:54.027Z,79.50
2019-06-07T06:05:59.278Z,79.48
2019-06-07T06:11:04.515Z,79.61
2019-06-07T06:16:10.211Z,79.47
2019-06-07T06:21:19.733Z,79.06
2019-06-07T06:26:22.575Z,78.96
2019-06-07T06:31:28.066Z,78.78
2019-06-07T06:36:33.311Z,78.66
2019-06-07T06:41:50.681Z,78.07
2019-06-07T06:46:50.207Z,77.97
2019-06-07T06:51:53.869Z,77.23
2019-06-07T06:57:17.800Z,77.56
2019-06-07T07:02:07.793Z,76.72
2019-06-07T07:07:13.052Z,75.54
2019-06-07T07:12:18.667Z,76.74
2019-06-07T07:17:46.717Z,75.67
2019-06-07T07:22:30.887Z,74.33
2019-06-07T07:27:36.575Z,73.58
2019-06-07T07:32:45.602Z,74.77
2019-06-07T07:37:58.715Z,75.19
2019-06-07T07:42:56.751Z,73.91
2019-06-07T07:48:15.834Z,73.56
2019-06-07T07:53:10.242Z,73.16
2019-06-07T07:58:15.551Z,73.68
2019-06-07T08:03:21.362Z,72.74
2019-06-07T08:08:26.840Z,72.37
2019-06-07T08:13:32.160Z,71.07
2019-06-07T08:18:37.514Z,71.80
2019-06-07T08:23:42.830Z,69.15
2019-06-07T08:28:48.984Z,68.92
2019-06-07T08:33:57.033Z,68.53
2019-06-07T08:39:07.205Z,68.15
2019-06-07T08:44:22.770Z,67.90
2019-06-07T08:49:16.472Z,67.68
2019-06-07T08:54:23.361Z,68.15
2019-06-07T08:59:29.406Z,65.88
2019-06-07T09:04:34.650Z,65.86
2019-06-07T09:09:41.103Z,66.06
2019-06-07T09:14:59.744Z,65.57
2019-06-07T09:19:55.572Z,64.84
2019-06-07T09:25:09.446Z,64.20
2019-06-07T09:30:16.324Z,63.43
2019-06-07T09:35:17.539Z,64.52
2019-06-07T09:40:29.987Z,62.66
2019-06-07T09:45:35.279Z,61.79
2019-06-07T09:50:40.517Z,62.10
2019-06-07T09:55:46.082Z,62.16
2019-06-07T10:00:51.398Z,61.72
2019-06-07T10:05:57.960Z,62.64
2019-06-07T10:11:04.729Z,60.53
2019-06-07T10:16:10.523Z,61.47
2019-06-07T10:21:15.867Z,61.56
2019-06-07T10:26:21.416Z,60.64
2019-06-07T10:31:26.922Z,60.87
2019-06-07T10:36:32.556Z,60.21
2019-06-07T10:41:38.155Z,59.35
2019-06-07T10:46:43.450Z,60.51
2019-06-07T10:51:48.970Z,58.88
2019-06-07T10:56:54.220Z,58.66
2019-06-07T11:01:59.477Z,58.82
2019-06-07T11:07:06.292Z,59.38
2019-06-07T11:12:12.629Z,57.44
2019-06-07T11:17:17.984Z,58.18
2019-06-07T11:22:23.291Z,57.91
2019-06-07T11:27:28.995Z,56.39
2019-06-07T11:32:34.272Z,56.69
2019-06-07T11:37:39.513Z,58.24
2019-06-07T11:42:44.740Z,57.98
2019-06-07T11:47:50.364Z,57.67
2019-06-07T11:52:56.694Z,56.01
2019-06-07T11:58:01.977Z,57.44
2019-06-07T12:03:07.528Z,56.77
2019-06-07T12:08:14.023Z,55.93
2019-06-07T12:13:19.252Z,54.47
2019-06-07T12:18:24.568Z,54.73
2019-06-07T12:23:30.206Z,53.67
2019-06-07T12:28:35.485Z,53.45
2019-06-07T12:33:40.730Z,53.38
2019-06-07T12:38:45.996Z,53.68
2019-06-07T12:43:51.242Z,55.23
2019-06-07T12:48:56.487Z,54.46
2019-06-07T12:54:01.763Z,56.62
2019-06-07T12:59:07.869Z,55.58
2019-06-07T13:04:14.369Z,55.45
2019-06-07T13:09:19.921Z,53.72
2019-06-07T13:14:25.199Z,53.72
2019-06-07T13:19:30.797Z,53.50
2019-06-07T13:24:36.026Z,52.18
2019-06-07T13:29:41.291Z,51.80
2019-06-07T13:34:46.502Z,51.20
2019-06-07T13:39:51.776Z,51.10
2019-06-07T13:44:57.044Z,49.79
2019-06-07T13:50:02.275Z,49.87
2019-06-07T13:55:08.331Z,48.56
2019-06-07T14:00:14.898Z,47.78
2019-06-07T14:05:20.937Z,48.13
2019-06-07T14:10:27.518Z,47.24
2019-06-07T14:15:34.484Z,47.08
2019-06-07T14:20:40.137Z,47.25
2019-06-07T14:25:45.428Z,45.66
2019-06-07T14:30:50.926Z,45.68
2019-06-07T14:35:56.983Z,44.72
2019-06-07T14:41:02.236Z,45.49
2019-06-07T14:46:07.464Z,45.03
2019-06-07T14:51:12.716Z,44.37
2019-06-07T14:56:17.977Z,42.84
2019-06-07T15:01:23.599Z,42.99
2019-06-07T15:06:30.650Z,41.31
2019-06-07T15:11:35.925Z,41.43
2019-06-07T15:16:42.596Z,41.54
2019-06-07T15:21:47.805Z,40.26
2019-06-07T15:26:53.048Z,40.32
2019-06-07T15:31:58.195Z,40.32
2019-06-07T15:37:03.522Z,40.05
2019-06-07T15:42:08.851Z,39.12
2019-06-07T15:47:14.065Z,38.88
2019-06-07T15:52:19.284Z,39.70
2019-06-07T15:57:24.531Z,39.89
2019-06-07T16:02:31.311Z,39.65
2019-06-07T16:07:38.387Z,39.22
2019-06-07T16:12:58.845Z,38.52
2019-06-07T16:17:50.851Z,37.96
2019-06-07T16:22:56.227Z,38.08
2019-06-07T16:28:01.936Z,37.30
2019-06-07T16:33:07.233Z,37.88
2019-06-07T16:38:12.538Z,38.82
2019-06-07T16:43:18.719Z,39.15
2019-06-07T16:48:24.006Z,38.34
2019-06-07T16:53:29.545Z,37.31
2019-06-07T16:58:34.778Z,35.95
2019-06-07T17:03:41.342Z,35.95
2019-06-07T17:08:48.178Z,35.59
2019-06-07T17:13:53.814Z,35.95
2019-06-07T17:18:59.081Z,36.82
2019-06-07T17:24:04.652Z,37.26
2019-06-07T17:29:10.217Z,36.77
2019-06-07T17:34:15.596Z,37.95
2019-06-07T17:39:20.868Z,38.20
2019-06-07T17:44:26.438Z,38.05
2019-06-07T17:49:32.222Z,38.50
2019-06-07T17:54:38.538Z,38.56
2019-06-07T17:59:44.347Z,39.52
2019-06-07T18:04:51.156Z,39.69
2019-06-07T18:09:57.286Z,40.47
2019-06-07T18:15:02.631Z,40.78
2019-06-07T18:20:10.868Z,41.55
2019-06-07T18:25:16.529Z,41.55
2019-06-07T18:30:21.855Z,42.02
2019-06-07T18:35:27.228Z,44.24
2019-06-07T18:40:32.584Z,44.24
2019-06-07T18:45:37.824Z,46.54
2019-06-07T18:50:43.095Z,47.14
2019-06-07T18:55:49.882Z,48.18
2019-06-07T19:00:55.550Z,48.72
2019-06-07T19:06:02.131Z,49.55
2019-06-07T19:11:07.916Z,50.26
2019-06-07T19:16:14.099Z,51.92
2019-06-07T19:21:19.781Z,52.67
2019-06-07T19:26:25.347Z,52.34
2019-06-07T19:31:30.708Z,52.96
2019-06-07T19:36:48.914Z,54.00
2019-06-07T19:41:55.922Z,54.55
2019-06-07T19:47:07.096Z,54.35
2019-06-07T19:52:13.962Z,55.78
2019-06-07T19:57:19.963Z,56.30
2019-06-07T20:02:25.473Z,56.83
2019-06-07T20:07:30.750Z,57.96
2019-06-07T20:12:36.374Z,58.83
2019-06-07T20:17:42.015Z,58.87
2019-06-07T20:22:47.720Z,59.21
2019-06-07T20:27:53.267Z,59.54
2019-06-07T20:32:59.807Z,59.45
2019-06-07T20:38:05.888Z,59.38
2019-06-07T20:43:11.243Z,59.82
2019-06-07T20:48:16.507Z,61.14
2019-06-07T20:53:21.818Z,60.21
2019-06-07T20:58:27.901Z,60.89
2019-06-07T21:03:33.141Z,61.26
2019-06-07T21:08:38.833Z,61.07
2019-06-07T21:13:45.126Z,60.72
2019-06-07T21:18:51.209Z,60.54
2019-06-07T21:23:56.498Z,60.19
2019-06-07T21:29:03.256Z,59.87
2019-06-07T21:34:11.962Z,59.69
2019-06-07T21:39:15.606Z,60.08
2019-06-07T21:44:21.217Z,59.97
2019-06-07T21:49:26.832Z,63.71
2019-06-07T21:54:32.055Z,60.43
2019-06-07T21:59:37.351Z,57.67
2019-06-07T22:04:42.573Z,56.90
2019-06-07T22:09:47.868Z,57.42
2019-06-07T22:14:53.741Z,59.08
2019-06-07T22:19:59.155Z,60.71
2019-06-07T22:25:04.800Z,62.21
2019-06-07T22:30:10.698Z,63.87
2019-06-07T22:35:15.961Z,64.46
2019-06-07T22:40:21.220Z,64.66
2019-06-07T22:45:26.462Z,64.85
2019-06-07T22:50:32.093Z,64.99
2019-06-07T22:55:37.663Z,65.62
2019-06-07T23:00:43.499Z,66.58
2019-06-07T23:05:49.159Z,66.46
2019-06-07T23:10:54.769Z,66.10
2019-06-07T23:16:00.102Z,66.13
2019-06-07T23:21:05.351Z,65.82
2019-06-07T23:26:12.199Z,65.83
2019-06-07T23:31:18.559Z,66.00
2019-06-07T23:36:24.180Z,64.42
2019-06-07T23:41:29.517Z,64.88
2019-06-07T23:46:35.129Z,64.83
2019-06-07T23:51:42.270Z,65.62
2019-06-07T23:56:47.634Z,65.39
